sensor_id;sensor_type;location;lat;lon;timestamp;pressure;altitude;pressure_sealevel;temperature;humidity
59009;BME280;44794;42.652;23.318;2023-06-10T00:02:26;93936.78;;;16.85;100.00
59009;BME280;44794;42.652;23.318;2023-06-10T00:04:51;93952.38;;;16.79;100.00
59009;BME280;44794;42.652;23.318;2023-06-10T00:07:17;93959.91;;;16.82;100.00
59009;BME280;44794;42.652;23.318;2023-06-10T00:09:43;93962.19;;;16.77;100.00
59009;BME280;44794;42.652;23.318;2023-06-10T00:12:09;93959.91;;;16.74;100.00
59009;BME280;44794;42.652;23.318;2023-06-10T00:14:37;93956.28;;;16.75;100.00
59009;BME280;44794;42.652;23.318;2023-06-10T00:17:03;93954.66;;;16.74;100.00
59009;BME280;44794;42.652;23.318;2023-06-10T00:19:28;93944.16;;;16.74;100.00
59009;BME280;44794;42.652;23.318;2023-06-10T00:21:55;93951.41;;;16.72;100.00
59009;BME280;44794;42.652;23.318;2023-06-10T00:24:21;93947.75;;;16.73;100.00
59009;BME280;44794;42.652;23.318;2023-06-10T00:26:47;93949.75;;;16.71;100.00
59009;BME280;44794;42.652;23.318;2023-06-10T00:29:13;93951.53;;;16.70;100.00
59009;BME280;44794;42.652;23.318;2023-06-10T00:31:39;93960.06;;;16.64;100.00
59009;BME280;44794;42.652;23.318;2023-06-10T00:34:05;93956.16;;;16.60;100.00
59009;BME280;44794;42.652;23.318;2023-06-10T00:36:30;93953.66;;;16.59;100.00
59009;BME280;44794;42.652;23.318;2023-06-10T00:38:56;93954.00;;;16.56;100.00
59009;BME280;44794;42.652;23.318;2023-06-10T00:41:22;93963.34;;;16.58;100.00
59009;BME280;44794;42.652;23.318;2023-06-10T00:43:48;93949.09;;;16.61;100.00
59009;BME280;44794;42.652;23.318;2023-06-10T00:46:13;93955.81;;;16.63;100.00
59009;BME280;44794;42.652;23.318;2023-06-10T00:48:40;93958.09;;;16.66;100.00
59009;BME280;44794;42.652;23.318;2023-06-10T00:51:06;93954.66;;;16.66;100.00
59009;BME280;44794;42.652;23.318;2023-06-10T00:53:36;93958.44;;;16.63;100.00
59009;BME280;44794;42.652;23.318;2023-06-10T00:56:04;93964.50;;;16.64;100.00
59009;BME280;44794;42.652;23.318;2023-06-10T00:58:30;93955.50;;;16.66;100.00
59009;BME280;44794;42.652;23.318;2023-06-10T01:00:56;93954.50;;;16.67;100.00
59009;BME280;44794;42.652;23.318;2023-06-10T01:03:23;93956.63;;;16.72;100.00
59009;BME280;44794;42.652;23.318;2023-06-10T01:05:54;93957.28;;;16.74;100.00
59009;BME280;44794;42.652;23.318;2023-06-10T01:08:30;93957.44;;;16.72;100.00
59009;BME280;44794;42.652;23.318;2023-06-10T01:11:00;93962.53;;;16.74;100.00
59009;BME280;44794;42.652;23.318;2023-06-10T01:13:27;93961.53;;;16.75;100.00
59009;BME280;44794;42.652;23.318;2023-06-10T01:15:58;93969.75;;;16.72;100.00
59009;BME280;44794;42.652;23.318;2023-06-10T01:18:30;93971.38;;;16.73;100.00
59009;BME280;44794;42.652;23.318;2023-06-10T01:20:56;93972.69;;;16.69;100.00
59009;BME280;44794;42.652;23.318;2023-06-10T01:23:21;93975.31;;;16.69;100.00
59009;BME280;44794;42.652;23.318;2023-06-10T01:25:57;93975.31;;;16.61;100.00
59009;BME280;44794;42.652;23.318;2023-06-10T01:28:35;93968.41;;;16.60;100.00
59009;BME280;44794;42.652;23.318;2023-06-10T01:31:15;93969.75;;;16.64;100.00
59009;BME280;44794;42.652;23.318;2023-06-10T01:33:52;93969.56;;;16.65;100.00
59009;BME280;44794;42.652;23.318;2023-06-10T01:36:19;93975.00;;;16.64;100.00
59009;BME280;44794;42.652;23.318;2023-06-10T01:38:47;93984.50;;;16.57;100.00
59009;BME280;44794;42.652;23.318;2023-06-10T01:41:18;93976.94;;;16.62;100.00
59009;BME280;44794;42.652;23.318;2023-06-10T01:43:45;93980.72;;;16.67;100.00
59009;BME280;44794;42.652;23.318;2023-06-10T01:46:11;93982.03;;;16.71;100.00
59009;BME280;44794;42.652;23.318;2023-06-10T01:48:37;93973.97;;;16.73;100.00
59009;BME280;44794;42.652;23.318;2023-06-10T01:51:03;93971.84;;;16.76;100.00
59009;BME280;44794;42.652;23.318;2023-06-10T01:53:29;93976.59;;;16.81;100.00
59009;BME280;44794;42.652;23.318;2023-06-10T01:55:54;93975.13;;;16.78;100.00
59009;BME280;44794;42.652;23.318;2023-06-10T01:58:19;93969.41;;;16.83;100.00
59009;BME280;44794;42.652;23.318;2023-06-10T02:00:45;93973.00;;;16.82;100.00
59009;BME280;44794;42.652;23.318;2023-06-10T02:03:10;93965.50;;;16.79;100.00
59009;BME280;44794;42.652;23.318;2023-06-10T02:05:36;93963.84;;;16.78;100.00
59009;BME280;44794;42.652;23.318;2023-06-10T02:08:01;93961.53;;;16.83;100.00
59009;BME280;44794;42.652;23.318;2023-06-10T02:10:27;93961.53;;;16.83;100.00
59009;BME280;44794;42.652;23.318;2023-06-10T02:12:52;93955.13;;;16.85;100.00
59009;BME280;44794;42.652;23.318;2023-06-10T02:15:18;93952.34;;;16.87;100.00
59009;BME280;44794;42.652;23.318;2023-06-10T02:17:43;93945.63;;;16.84;100.00
59009;BME280;44794;42.652;23.318;2023-06-10T02:20:10;93944.50;;;16.79;100.00
59009;BME280;44794;42.652;23.318;2023-06-10T02:22:36;93947.75;;;16.81;100.00
59009;BME280;44794;42.652;23.318;2023-06-10T02:25:02;93936.13;;;16.83;100.00
59009;BME280;44794;42.652;23.318;2023-06-10T02:27:29;93929.88;;;16.84;100.00
59009;BME280;44794;42.652;23.318;2023-06-10T02:29:55;93937.94;;;16.83;100.00
59009;BME280;44794;42.652;23.318;2023-06-10T02:32:21;93930.06;;;16.83;100.00
59009;BME280;44794;42.652;23.318;2023-06-10T02:34:46;93925.81;;;16.82;100.00
59009;BME280;44794;42.652;23.318;2023-06-10T02:37:14;93928.44;;;16.82;100.00
59009;BME280;44794;42.652;23.318;2023-06-10T02:39:40;93934.50;;;16.82;100.00
59009;BME280;44794;42.652;23.318;2023-06-10T02:42:05;93930.06;;;16.75;100.00
59009;BME280;44794;42.652;23.318;2023-06-10T02:44:31;93928.44;;;16.74;100.00
59009;BME280;44794;42.652;23.318;2023-06-10T02:46:57;93929.25;;;16.74;100.00
59009;BME280;44794;42.652;23.318;2023-06-10T02:49:22;93942.19;;;16.68;100.00
59009;BME280;44794;42.652;23.318;2023-06-10T02:51:47;93950.41;;;16.65;100.00
59009;BME280;44794;42.652;23.318;2023-06-10T02:54:13;93956.28;;;16.59;100.00
59009;BME280;44794;42.652;23.318;2023-06-10T02:56:38;93943.19;;;16.59;100.00
59009;BME280;44794;42.652;23.318;2023-06-10T02:59:07;93936.81;;;16.61;100.00
59009;BME280;44794;42.652;23.318;2023-06-10T03:01:33;93938.44;;;16.62;100.00
59009;BME280;44794;42.652;23.318;2023-06-10T03:04:02;93928.28;;;16.67;100.00
59009;BME280;44794;42.652;23.318;2023-06-10T03:06:27;93926.78;;;16.73;100.00
59009;BME280;44794;42.652;23.318;2023-06-10T03:08:53;93925.66;;;16.75;100.00
59009;BME280;44794;42.652;23.318;2023-06-10T03:11:19;93918.28;;;16.79;100.00
59009;BME280;44794;42.652;23.318;2023-06-10T03:13:44;93926.78;;;16.81;100.00
59009;BME280;44794;42.652;23.318;2023-06-10T03:16:10;93931.03;;;16.82;100.00
59009;BME280;44794;42.652;23.318;2023-06-10T03:18:37;93925.13;;;16.80;100.00
59009;BME280;44794;42.652;23.318;2023-06-10T03:21:03;93928.44;;;16.82;100.00
59009;BME280;44794;42.652;23.318;2023-06-10T03:23:28;93938.09;;;16.81;100.00
59009;BME280;44794;42.652;23.318;2023-06-10T03:25:54;93933.84;;;16.80;100.00
59009;BME280;44794;42.652;23.318;2023-06-10T03:28:20;93932.69;;;16.75;100.00
59009;BME280;44794;42.652;23.318;2023-06-10T03:30:47;93941.88;;;16.63;100.00
59009;BME280;44794;42.652;23.318;2023-06-10T03:33:12;93938.44;;;16.62;100.00
59009;BME280;44794;42.652;23.318;2023-06-10T03:35:39;93940.25;;;16.62;100.00
59009;BME280;44794;42.652;23.318;2023-06-10T03:38:05;93944.34;;;16.64;100.00
59009;BME280;44794;42.652;23.318;2023-06-10T03:40:31;93945.00;;;16.66;100.00
59009;BME280;44794;42.652;23.318;2023-06-10T03:42:57;93946.47;;;16.77;100.00
59009;BME280;44794;42.652;23.318;2023-06-10T03:45:23;93942.69;;;16.79;100.00
59009;BME280;44794;42.652;23.318;2023-06-10T03:47:49;93943.19;;;16.83;100.00
59009;BME280;44794;42.652;23.318;2023-06-10T03:50:15;93946.78;;;16.90;100.00
59009;BME280;44794;42.652;23.318;2023-06-10T03:52:41;93950.38;;;16.89;100.00
59009;BME280;44794;42.652;23.318;2023-06-10T03:55:07;93950.06;;;17.00;100.00
59009;BME280;44794;42.652;23.318;2023-06-10T03:57:32;93949.38;;;17.06;100.00
59009;BME280;44794;42.652;23.318;2023-06-10T03:59:58;93940.84;;;17.12;100.00
59009;BME280;44794;42.652;23.318;2023-06-10T04:02:23;93938.69;;;17.15;100.00
59009;BME280;44794;42.652;23.318;2023-06-10T04:04:49;93941.16;;;17.17;100.00
59009;BME280;44794;42.652;23.318;2023-06-10T04:07:16;93950.47;;;17.19;100.00
59009;BME280;44794;42.652;23.318;2023-06-10T04:09:44;93957.06;;;17.23;100.00
59009;BME280;44794;42.652;23.318;2023-06-10T04:12:09;93955.75;;;17.27;100.00
59009;BME280;44794;42.652;23.318;2023-06-10T04:14:35;93964.09;;;17.31;100.00
59009;BME280;44794;42.652;23.318;2023-06-10T04:17:04;93969.84;;;17.34;100.00
59009;BME280;44794;42.652;23.318;2023-06-10T04:19:32;93979.19;;;17.29;100.00
59009;BME280;44794;42.652;23.318;2023-06-10T04:21:57;93990.03;;;17.18;100.00
59009;BME280;44794;42.652;23.318;2023-06-10T04:24:23;93999.22;;;17.14;100.00
59009;BME280;44794;42.652;23.318;2023-06-10T04:26:48;93987.09;;;17.13;100.00
59009;BME280;44794;42.652;23.318;2023-06-10T04:29:13;93991.66;;;17.19;100.00
59009;BME280;44794;42.652;23.318;2023-06-10T04:31:39;93993.44;;;17.26;100.00
59009;BME280;44794;42.652;23.318;2023-06-10T04:34:04;93988.69;;;17.22;100.00
59009;BME280;44794;42.652;23.318;2023-06-10T04:36:30;93984.59;;;17.19;100.00
59009;BME280;44794;42.652;23.318;2023-06-10T04:38:55;93982.47;;;17.31;100.00
59009;BME280;44794;42.652;23.318;2023-06-10T04:41:21;93968.47;;;17.46;100.00
59009;BME280;44794;42.652;23.318;2023-06-10T04:43:47;93976.50;;;17.60;100.00
59009;BME280;44794;42.652;23.318;2023-06-10T04:46:13;93987.13;;;17.67;100.00
59009;BME280;44794;42.652;23.318;2023-06-10T04:48:38;93985.59;;;17.80;100.00
59009;BME280;44794;42.652;23.318;2023-06-10T04:51:04;93984.19;;;18.00;100.00
59009;BME280;44794;42.652;23.318;2023-06-10T04:53:30;93983.75;;;18.19;100.00
59009;BME280;44794;42.652;23.318;2023-06-10T04:55:57;93996.16;;;18.41;100.00
59009;BME280;44794;42.652;23.318;2023-06-10T04:58:23;94002.59;;;18.61;100.00
59009;BME280;44794;42.652;23.318;2023-06-10T05:00:48;94015.63;;;18.77;100.00
59009;BME280;44794;42.652;23.318;2023-06-10T05:03:14;94028.13;;;18.75;100.00
59009;BME280;44794;42.652;23.318;2023-06-10T05:05:39;94038.59;;;18.83;100.00
59009;BME280;44794;42.652;23.318;2023-06-10T05:08:05;94045.22;;;18.79;100.00
59009;BME280;44794;42.652;23.318;2023-06-10T05:10:30;94042.63;;;18.71;100.00
59009;BME280;44794;42.652;23.318;2023-06-10T05:12:57;94043.44;;;18.71;100.00
59009;BME280;44794;42.652;23.318;2023-06-10T05:15:24;94051.53;;;18.70;100.00
59009;BME280;44794;42.652;23.318;2023-06-10T05:17:49;94039.22;;;18.70;100.00
59009;BME280;44794;42.652;23.318;2023-06-10T05:20:15;94041.13;;;18.76;100.00
59009;BME280;44794;42.652;23.318;2023-06-10T05:22:41;94052.47;;;18.77;100.00
59009;BME280;44794;42.652;23.318;2023-06-10T05:25:07;94056.25;;;18.74;100.00
59009;BME280;44794;42.652;23.318;2023-06-10T05:27:32;94049.88;;;18.69;100.00
59009;BME280;44794;42.652;23.318;2023-06-10T05:29:58;94061.25;;;18.69;100.00
59009;BME280;44794;42.652;23.318;2023-06-10T05:32:23;94052.56;;;18.61;100.00
59009;BME280;44794;42.652;23.318;2023-06-10T05:34:49;94056.13;;;18.68;100.00
59009;BME280;44794;42.652;23.318;2023-06-10T05:37:14;94048.50;;;18.81;100.00
59009;BME280;44794;42.652;23.318;2023-06-10T05:39:40;94048.03;;;18.99;100.00
59009;BME280;44794;42.652;23.318;2023-06-10T05:42:06;94061.00;;;19.23;100.00
59009;BME280;44794;42.652;23.318;2023-06-10T05:44:32;94073.63;;;19.50;100.00
59009;BME280;44794;42.652;23.318;2023-06-10T05:46:58;94079.22;;;19.84;100.00
59009;BME280;44794;42.652;23.318;2023-06-10T05:49:23;94086.00;;;20.15;100.00
59009;BME280;44794;42.652;23.318;2023-06-10T05:51:49;94109.38;;;20.33;100.00
59009;BME280;44794;42.652;23.318;2023-06-10T05:54:15;94119.06;;;20.61;100.00
59009;BME280;44794;42.652;23.318;2023-06-10T05:56:40;94129.25;;;20.93;100.00
59009;BME280;44794;42.652;23.318;2023-06-10T05:59:06;94139.38;;;21.10;100.00
59009;BME280;44794;42.652;23.318;2023-06-10T06:01:31;94136.69;;;21.24;100.00
59009;BME280;44794;42.652;23.318;2023-06-10T06:03:57;94154.75;;;20.86;100.00
59009;BME280;44794;42.652;23.318;2023-06-10T06:06:22;94146.97;;;20.84;100.00
59009;BME280;44794;42.652;23.318;2023-06-10T06:08:48;94139.25;;;20.97;100.00
59009;BME280;44794;42.652;23.318;2023-06-10T06:11:13;94142.69;;;20.98;100.00
59009;BME280;44794;42.652;23.318;2023-06-10T06:13:39;94139.16;;;20.91;100.00
59009;BME280;44794;42.652;23.318;2023-06-10T06:16:04;94129.72;;;21.17;100.00
59009;BME280;44794;42.652;23.318;2023-06-10T06:18:30;94139.13;;;21.47;100.00
59009;BME280;44794;42.652;23.318;2023-06-10T06:20:55;94142.53;;;21.55;100.00
59009;BME280;44794;42.652;23.318;2023-06-10T06:23:21;94138.16;;;21.69;100.00
59009;BME280;44794;42.652;23.318;2023-06-10T06:25:46;94143.41;;;21.62;100.00
59009;BME280;44794;42.652;23.318;2023-06-10T06:28:11;94154.00;;;21.69;100.00
59009;BME280;44794;42.652;23.318;2023-06-10T06:30:37;94157.06;;;21.66;100.00
59009;BME280;44794;42.652;23.318;2023-06-10T06:33:02;94165.06;;;21.37;100.00
59009;BME280;44794;42.652;23.318;2023-06-10T06:35:31;94162.81;;;20.99;100.00
59009;BME280;44794;42.652;23.318;2023-06-10T06:37:57;94148.72;;;20.77;100.00
59009;BME280;44794;42.652;23.318;2023-06-10T06:40:24;94152.34;;;20.91;100.00
59009;BME280;44794;42.652;23.318;2023-06-10T06:42:49;94153.63;;;20.51;100.00
59009;BME280;44794;42.652;23.318;2023-06-10T06:45:14;94156.34;;;20.72;100.00
59009;BME280;44794;42.652;23.318;2023-06-10T06:47:40;94154.22;;;21.11;100.00
59009;BME280;44794;42.652;23.318;2023-06-10T06:50:06;94165.03;;;21.16;97.56
59009;BME280;44794;42.652;23.318;2023-06-10T06:52:31;94158.69;;;21.11;98.39
59009;BME280;44794;42.652;23.318;2023-06-10T06:54:56;94146.97;;;21.55;99.82
59009;BME280;44794;42.652;23.318;2023-06-10T06:57:22;94160.78;;;21.98;96.82
59009;BME280;44794;42.652;23.318;2023-06-10T06:59:48;94170.28;;;22.41;94.14
59009;BME280;44794;42.652;23.318;2023-06-10T07:02:14;94170.13;;;22.83;89.39
59009;BME280;44794;42.652;23.318;2023-06-10T07:04:39;94170.09;;;23.17;86.82
59009;BME280;44794;42.652;23.318;2023-06-10T07:07:07;94173.88;;;23.61;84.36
59009;BME280;44794;42.652;23.318;2023-06-10T07:09:33;94175.78;;;23.73;81.60
59009;BME280;44794;42.652;23.318;2023-06-10T07:11:58;94178.25;;;24.01;79.51
59009;BME280;44794;42.652;23.318;2023-06-10T07:14:24;94180.50;;;24.36;77.37
59009;BME280;44794;42.652;23.318;2023-06-10T07:16:49;94177.97;;;24.93;75.47
59009;BME280;44794;42.652;23.318;2023-06-10T07:19:15;94182.00;;;25.01;68.19
59009;BME280;44794;42.652;23.318;2023-06-10T07:21:40;94181.00;;;25.02;66.29
59009;BME280;44794;42.652;23.318;2023-06-10T07:24:06;94185.34;;;26.46;57.44
59009;BME280;44794;42.652;23.318;2023-06-10T07:26:31;94196.78;;;28.25;51.71
59009;BME280;44794;42.652;23.318;2023-06-10T07:28:57;94194.41;;;30.05;45.25
59009;BME280;44794;42.652;23.318;2023-06-10T07:31:23;94199.72;;;28.35;46.95
59009;BME280;44794;42.652;23.318;2023-06-10T07:33:48;94193.75;;;26.67;47.60
59009;BME280;44794;42.652;23.318;2023-06-10T07:36:14;94192.38;;;26.34;51.64
59009;BME280;44794;42.652;23.318;2023-06-10T07:38:39;94181.19;;;25.14;56.58
59009;BME280;44794;42.652;23.318;2023-06-10T07:41:07;94180.00;;;25.91;56.40
59009;BME280;44794;42.652;23.318;2023-06-10T07:43:32;94185.91;;;26.72;51.68
59009;BME280;44794;42.652;23.318;2023-06-10T07:45:58;94183.09;;;27.10;51.25
59009;BME280;44794;42.652;23.318;2023-06-10T07:48:24;94190.22;;;26.73;51.00
59009;BME280;44794;42.652;23.318;2023-06-10T07:50:50;94181.56;;;26.05;52.49
59009;BME280;44794;42.652;23.318;2023-06-10T07:53:15;94187.94;;;25.97;52.95
59009;BME280;44794;42.652;23.318;2023-06-10T07:55:40;94176.81;;;25.39;54.21
59009;BME280;44794;42.652;23.318;2023-06-10T07:58:06;94186.56;;;26.68;51.15
59009;BME280;44794;42.652;23.318;2023-06-10T08:00:31;94203.34;;;28.64;45.37
59009;BME280;44794;42.652;23.318;2023-06-10T08:02:57;94202.84;;;29.97;43.15
59009;BME280;44794;42.652;23.318;2023-06-10T08:05:22;94220.81;;;32.51;36.09
59009;BME280;44794;42.652;23.318;2023-06-10T08:07:48;94224.56;;;33.44;34.90
59009;BME280;44794;42.652;23.318;2023-06-10T08:10:13;94218.59;;;32.17;37.32
59009;BME280;44794;42.652;23.318;2023-06-10T08:12:39;94203.13;;;30.29;40.12
59009;BME280;44794;42.652;23.318;2023-06-10T08:15:05;94204.13;;;30.39;38.91
59009;BME280;44794;42.652;23.318;2023-06-10T08:17:31;94202.22;;;30.84;37.58
59009;BME280;44794;42.652;23.318;2023-06-10T08:19:56;94205.44;;;31.35;37.16
59009;BME280;44794;42.652;23.318;2023-06-10T08:22:22;94207.19;;;31.62;36.92
59009;BME280;44794;42.652;23.318;2023-06-10T08:24:47;94197.13;;;30.66;38.20
59009;BME280;44794;42.652;23.318;2023-06-10T08:27:13;94189.94;;;29.32;39.53
59009;BME280;44794;42.652;23.318;2023-06-10T08:29:39;94174.06;;;30.21;40.69
59009;BME280;44794;42.652;23.318;2023-06-10T08:32:04;94182.00;;;30.16;39.42
59009;BME280;44794;42.652;23.318;2023-06-10T08:34:30;94180.06;;;29.33;39.70
59009;BME280;44794;42.652;23.318;2023-06-10T08:36:55;94172.31;;;28.74;42.25
59009;BME280;44794;42.652;23.318;2023-06-10T08:39:21;94167.06;;;27.45;42.48
59009;BME280;44794;42.652;23.318;2023-06-10T08:42:00;94159.22;;;27.15;43.98
59009;BME280;44794;42.652;23.318;2023-06-10T08:44:30;94159.72;;;26.87;43.95
59009;BME280;44794;42.652;23.318;2023-06-10T08:46:58;94153.97;;;27.08;45.28
59009;BME280;44794;42.652;23.318;2023-06-10T08:49:26;94153.66;;;26.80;45.45
59009;BME280;44794;42.652;23.318;2023-06-10T08:51:55;94153.72;;;26.74;45.08
59009;BME280;44794;42.652;23.318;2023-06-10T08:54:25;94145.94;;;26.72;44.94
59009;BME280;44794;42.652;23.318;2023-06-10T08:56:54;94147.00;;;26.47;46.46
59009;BME280;44794;42.652;23.318;2023-06-10T08:59:21;94133.03;;;26.52;47.85
59009;BME280;44794;42.652;23.318;2023-06-10T09:01:47;94137.81;;;26.85;47.47
59009;BME280;44794;42.652;23.318;2023-06-10T09:04:13;94147.31;;;26.99;43.44
59009;BME280;44794;42.652;23.318;2023-06-10T09:06:40;94143.97;;;26.44;44.38
59009;BME280;44794;42.652;23.318;2023-06-10T09:09:06;94145.72;;;26.01;43.57
59009;BME280;44794;42.652;23.318;2023-06-10T09:11:32;94134.91;;;25.65;45.49
59009;BME280;44794;42.652;23.318;2023-06-10T09:13:58;94136.78;;;25.58;44.55
59009;BME280;44794;42.652;23.318;2023-06-10T09:16:25;94121.72;;;25.83;46.71
59009;BME280;44794;42.652;23.318;2023-06-10T09:18:51;94134.81;;;26.09;44.41
59009;BME280;44794;42.652;23.318;2023-06-10T09:21:23;94127.84;;;26.39;45.47
59009;BME280;44794;42.652;23.318;2023-06-10T09:23:49;94133.31;;;26.44;44.94
59009;BME280;44794;42.652;23.318;2023-06-10T09:26:15;94131.72;;;26.78;43.85
59009;BME280;44794;42.652;23.318;2023-06-10T09:28:44;94128.31;;;26.71;43.34
59009;BME280;44794;42.652;23.318;2023-06-10T09:31:12;94124.03;;;26.70;44.35
59009;BME280;44794;42.652;23.318;2023-06-10T09:33:39;94130.06;;;27.02;44.30
59009;BME280;44794;42.652;23.318;2023-06-10T09:36:06;94128.91;;;27.27;42.22
59009;BME280;44794;42.652;23.318;2023-06-10T09:38:33;94123.75;;;27.14;42.79
59009;BME280;44794;42.652;23.318;2023-06-10T09:40:59;94124.63;;;27.26;42.52
59009;BME280;44794;42.652;23.318;2023-06-10T09:43:40;94114.50;;;27.46;42.13
59009;BME280;44794;42.652;23.318;2023-06-10T09:46:05;94117.88;;;27.71;42.03
59009;BME280;44794;42.652;23.318;2023-06-10T09:48:35;94121.16;;;27.08;41.66
59009;BME280;44794;42.652;23.318;2023-06-10T09:51:08;94126.00;;;27.17;41.31
59009;BME280;44794;42.652;23.318;2023-06-10T09:53:34;94114.84;;;27.20;41.64
59009;BME280;44794;42.652;23.318;2023-06-10T09:56:00;94105.28;;;27.31;42.67
59009;BME280;44794;42.652;23.318;2023-06-10T09:58:38;94100.41;;;27.28;43.10
59009;BME280;44794;42.652;23.318;2023-06-10T10:01:12;94106.41;;;27.05;41.95
59009;BME280;44794;42.652;23.318;2023-06-10T10:03:49;94102.69;;;26.70;42.34
59009;BME280;44794;42.652;23.318;2023-06-10T10:06:16;94102.63;;;26.41;43.49
59009;BME280;44794;42.652;23.318;2023-06-10T10:08:42;94104.72;;;26.33;42.85
59009;BME280;44794;42.652;23.318;2023-06-10T10:11:08;94090.94;;;26.36;42.25
59009;BME280;44794;42.652;23.318;2023-06-10T10:13:34;94084.28;;;26.69;42.16
59009;BME280;44794;42.652;23.318;2023-06-10T10:16:04;94082.13;;;26.77;43.92
59009;BME280;44794;42.652;23.318;2023-06-10T10:18:31;94087.31;;;26.72;42.88
59009;BME280;44794;42.652;23.318;2023-06-10T10:21:03;94076.38;;;26.80;43.51
59009;BME280;44794;42.652;23.318;2023-06-10T10:23:40;94078.13;;;27.22;43.37
59009;BME280;44794;42.652;23.318;2023-06-10T10:26:10;94069.56;;;27.32;44.28
59009;BME280;44794;42.652;23.318;2023-06-10T10:28:44;94089.75;;;27.39;39.98
59009;BME280;44794;42.652;23.318;2023-06-10T10:31:12;94079.22;;;27.15;40.14
59009;BME280;44794;42.652;23.318;2023-06-10T10:33:48;94080.59;;;27.06;41.99
59009;BME280;44794;42.652;23.318;2023-06-10T10:36:16;94067.16;;;27.12;42.07
59009;BME280;44794;42.652;23.318;2023-06-10T10:38:43;94073.56;;;27.40;41.65
59009;BME280;44794;42.652;23.318;2023-06-10T10:41:10;94087.00;;;27.75;41.11
59009;BME280;44794;42.652;23.318;2023-06-10T10:43:37;94075.94;;;28.01;41.09
59009;BME280;44794;42.652;23.318;2023-06-10T10:46:12;94077.72;;;28.29;41.78
59009;BME280;44794;42.652;23.318;2023-06-10T10:48:39;94077.16;;;28.27;39.60
59009;BME280;44794;42.652;23.318;2023-06-10T10:51:06;94075.34;;;27.99;39.99
59009;BME280;44794;42.652;23.318;2023-06-10T10:53:32;94066.97;;;27.25;41.44
59009;BME280;44794;42.652;23.318;2023-06-10T10:56:18;94066.28;;;26.64;41.92
59009;BME280;44794;42.652;23.318;2023-06-10T10:59:03;94053.56;;;26.49;42.13
59009;BME280;44794;42.652;23.318;2023-06-10T11:01:40;94060.81;;;26.59;41.98
59009;BME280;44794;42.652;23.318;2023-06-10T11:04:08;94054.88;;;26.93;42.44
59009;BME280;44794;42.652;23.318;2023-06-10T11:06:34;94055.41;;;27.02;40.63
59009;BME280;44794;42.652;23.318;2023-06-10T11:09:00;94052.66;;;27.08;41.71
59009;BME280;44794;42.652;23.318;2023-06-10T11:11:27;94060.59;;;27.26;38.62
59009;BME280;44794;42.652;23.318;2023-06-10T11:16:39;94037.88;;;26.41;41.88
59009;BME280;44794;42.652;23.318;2023-06-10T11:19:05;94038.88;;;26.93;40.37
59009;BME280;44794;42.652;23.318;2023-06-10T11:21:31;94032.66;;;27.17;41.43
59009;BME280;44794;42.652;23.318;2023-06-10T11:23:58;94032.28;;;26.96;41.99
59009;BME280;44794;42.652;23.318;2023-06-10T11:31:25;94026.31;;;26.64;41.30
59009;BME280;44794;42.652;23.318;2023-06-10T11:33:59;94021.13;;;26.34;42.41
59009;BME280;44794;42.652;23.318;2023-06-10T11:36:26;94013.72;;;26.36;41.74
59009;BME280;44794;42.652;23.318;2023-06-10T11:38:59;94011.66;;;26.56;41.22
59009;BME280;44794;42.652;23.318;2023-06-10T11:41:26;94012.75;;;26.84;41.55
59009;BME280;44794;42.652;23.318;2023-06-10T11:43:52;94002.72;;;26.97;42.40
59009;BME280;44794;42.652;23.318;2023-06-10T11:46:18;94008.91;;;27.27;41.48
59009;BME280;44794;42.652;23.318;2023-06-10T11:48:54;94008.25;;;27.95;41.73
59009;BME280;44794;42.652;23.318;2023-06-10T11:51:20;94012.78;;;28.40;39.04
59009;BME280;44794;42.652;23.318;2023-06-10T11:53:47;94002.75;;;28.70;38.77
59009;BME280;44794;42.652;23.318;2023-06-10T11:56:13;94001.31;;;28.91;38.22
59009;BME280;44794;42.652;23.318;2023-06-10T11:58:43;94006.47;;;28.69;38.35
59009;BME280;44794;42.652;23.318;2023-06-10T12:01:08;94002.38;;;28.78;38.39
59009;BME280;44794;42.652;23.318;2023-06-10T12:03:37;94001.63;;;28.43;39.90
59009;BME280;44794;42.652;23.318;2023-06-10T12:06:05;94008.25;;;28.18;40.54
59009;BME280;44794;42.652;23.318;2023-06-10T12:08:30;93997.31;;;27.85;40.55
59009;BME280;44794;42.652;23.318;2023-06-10T12:10:57;93997.94;;;28.21;40.60
59009;BME280;44794;42.652;23.318;2023-06-10T12:13:26;94006.03;;;28.49;39.18
59009;BME280;44794;42.652;23.318;2023-06-10T12:15:51;94007.88;;;28.60;38.33
59009;BME280;44794;42.652;23.318;2023-06-10T12:18:21;94002.28;;;28.62;38.81
59009;BME280;44794;42.652;23.318;2023-06-10T12:20:47;93999.22;;;28.92;38.74
59009;BME280;44794;42.652;23.318;2023-06-10T12:23:14;93997.03;;;29.34;39.04
59009;BME280;44794;42.652;23.318;2023-06-10T12:25:49;93998.31;;;29.43;36.78
59009;BME280;44794;42.652;23.318;2023-06-10T12:28:16;93997.19;;;29.27;38.13
59009;BME280;44794;42.652;23.318;2023-06-10T12:30:43;93996.25;;;29.05;36.74
59009;BME280;44794;42.652;23.318;2023-06-10T12:33:18;93998.88;;;29.17;37.22
59009;BME280;44794;42.652;23.318;2023-06-10T12:35:49;93993.69;;;29.27;36.69
59009;BME280;44794;42.652;23.318;2023-06-10T12:38:18;93988.13;;;29.28;36.39
59009;BME280;44794;42.652;23.318;2023-06-10T12:40:47;93986.19;;;28.96;35.93
59009;BME280;44794;42.652;23.318;2023-06-10T12:43:12;93984.25;;;29.08;36.65
59009;BME280;44794;42.652;23.318;2023-06-10T12:45:39;93983.88;;;29.44;35.98
59009;BME280;44794;42.652;23.318;2023-06-10T12:48:16;93977.09;;;29.69;35.57
59009;BME280;44794;42.652;23.318;2023-06-10T12:50:42;93984.88;;;29.70;34.20
59009;BME280;44794;42.652;23.318;2023-06-10T12:53:09;93980.03;;;29.68;33.98